Time;durP1;ratioP1;P1;durP2;ratioP2;P2;SDS_P1;SDS_P2;PMS_P1;PMS_P2;Temp;Humidity;BMP_temperature;BMP_pressure;BME280_temperature;BME280_humidity;BME280_pressure;Samples;Min_cycle;Max_cycle;Signal;HPM_P1;HPM_P2
2022/01/04 00:01:19;;;;;;;6.80;1.30;;;;;;;7.15;79.70;99276.35;102692;1312;25121;-61
2022/01/04 00:03:50;;;;;;;6.90;1.50;;;;;;;7.17;79.73;99268.19;102723;1309;23924;-62
2022/01/04 00:06:22;;;;;;;8.50;1.70;;;;;;;7.17;79.82;99262.44;102752;1312;22587;-62
2022/01/04 00:08:55;;;;;;;8.90;2.00;;;;;;;7.18;79.82;99256.35;102763;1312;24564;-61
2022/01/04 00:11:43;;;;;;;11.10;1.90;;;;;;;7.19;79.81;99253.30;102681;1313;22576;-62
2022/01/04 00:14:14;;;;;;;10.30;1.50;;;;;;;7.18;79.96;99247.33;102759;1313;22620;-62
2022/01/04 00:16:45;;;;;;;9.30;1.70;;;;;;;7.18;79.83;99251.00;102682;1313;22519;-62
2022/01/04 00:19:17;;;;;;;11.20;1.80;;;;;;;7.17;80.01;99250.23;102615;1313;25373;-62
2022/01/04 00:21:48;;;;;;;13.80;1.80;;;;;;;7.17;79.91;99247.87;102804;1312;23044;-62
2022/01/04 00:24:18;;;;;;;9.10;1.80;;;;;;;7.18;79.96;99248.46;102655;1312;22722;-62
2022/01/04 00:26:49;;;;;;;8.50;1.60;;;;;;;7.17;79.95;99256.90;102646;1312;22588;-62
2022/01/04 00:29:20;;;;;;;8.50;2.00;;;;;;;7.17;79.85;99248.91;102692;1312;25221;-62
2022/01/04 00:31:51;;;;;;;9.60;1.60;;;;;;;7.16;79.89;99249.09;102716;1313;22612;-62
2022/01/04 00:34:22;;;;;;;7.70;1.40;;;;;;;7.16;79.95;99242.77;102682;1313;22580;-62
2022/01/04 00:36:54;;;;;;;10.50;1.50;;;;;;;7.16;80.08;99233.73;102690;1312;22591;-63
2022/01/04 00:39:24;;;;;;;7.90;1.60;;;;;;;7.15;80.15;99226.63;102608;1312;22577;-62
2022/01/04 00:41:55;;;;;;;9.10;2.00;;;;;;;7.17;80.14;99225.28;102744;1312;22604;-62
2022/01/04 00:44:26;;;;;;;6.90;1.30;;;;;;;7.17;80.26;99223.22;102755;1310;22640;-61
2022/01/04 00:46:59;;;;;;;10.10;1.70;;;;;;;7.16;80.32;99219.83;102624;1313;22591;-62
2022/01/04 00:49:29;;;;;;;13.20;1.40;;;;;;;7.17;80.43;99219.80;102814;1313;23972;-60
2022/01/04 00:52:01;;;;;;;8.20;1.30;;;;;;;7.17;80.44;99220.10;102792;1312;25395;-61
2022/01/04 00:54:33;;;;;;;12.20;1.80;;;;;;;7.17;80.45;99215.20;102660;1313;24355;-61
2022/01/04 00:57:05;;;;;;;14.00;1.50;;;;;;;7.16;80.45;99216.09;102858;1311;24293;-62
2022/01/04 00:59:36;;;;;;;5.80;1.10;;;;;;;7.15;80.44;99217.19;102942;1306;22572;-62
2022/01/04 01:02:08;;;;;;;7.90;1.20;;;;;;;7.15;80.49;99215.38;102855;1313;22599;-64
2022/01/04 01:04:39;;;;;;;12.10;1.30;;;;;;;7.14;80.53;99207.42;102756;1308;22570;-62
2022/01/04 01:07:10;;;;;;;7.10;1.20;;;;;;;7.12;80.34;99209.83;102857;1312;22585;-62
2022/01/04 01:09:54;;;;;;;5.50;1.10;;;;;;;7.09;80.42;99210.07;103293;1312;22601;-62
2022/01/04 01:12:25;;;;;;;9.00;1.10;;;;;;;7.08;80.43;99208.34;102833;1312;22591;-61
2022/01/04 01:14:56;;;;;;;9.30;1.40;;;;;;;7.09;80.27;99202.81;102879;1312;22760;-63
2022/01/04 01:17:27;;;;;;;5.80;1.10;;;;;;;7.08;80.46;99197.04;102739;1310;22626;-62
2022/01/04 01:19:58;;;;;;;7.30;1.10;;;;;;;7.07;80.45;99192.89;102830;1313;23104;-62
2022/01/04 01:22:29;;;;;;;6.80;1.20;;;;;;;7.05;80.23;99190.39;102723;1313;22628;-62
2022/01/04 01:25:00;;;;;;;6.90;1.00;;;;;;;7.05;80.39;99186.61;102908;1307;24245;-62
2022/01/04 01:27:31;;;;;;;6.10;1.10;;;;;;;7.06;80.41;99179.25;102742;1312;25648;-62
2022/01/04 01:30:03;;;;;;;6.70;1.00;;;;;;;7.06;80.37;99170.15;102808;1312;22623;-61
2022/01/04 01:32:34;;;;;;;6.60;1.00;;;;;;;7.04;80.32;99166.81;102638;1312;23943;-62
2022/01/04 01:35:06;;;;;;;5.60;1.00;;;;;;;7.02;80.34;99163.48;102641;1313;25411;-61
2022/01/04 01:37:37;;;;;;;6.60;1.30;;;;;;;7.01;80.43;99158.69;102863;1313;25542;-62
2022/01/04 01:40:09;;;;;;;7.30;1.00;;;;;;;6.98;80.37;99160.51;102829;1312;22617;-62
2022/01/04 01:42:41;;;;;;;5.90;1.10;;;;;;;6.96;80.32;99160.77;102757;1312;22561;-63
2022/01/04 01:45:16;;;;;;;5.20;0.90;;;;;;;6.93;80.30;99161.67;102689;1309;25277;-61
2022/01/04 01:47:47;;;;;;;6.40;1.00;;;;;;;6.88;80.25;99159.42;102740;1312;22564;-62
2022/01/04 01:50:19;;;;;;;6.60;1.00;;;;;;;6.85;80.42;99155.20;102721;1309;25409;-62
2022/01/04 01:52:53;;;;;;;4.90;0.80;;;;;;;6.85;80.48;99148.59;102827;1313;25820;-62
2022/01/04 01:55:25;;;;;;;7.30;0.90;;;;;;;6.83;80.61;99148.10;102751;1312;22723;-61
2022/01/04 01:57:57;;;;;;;5.30;0.90;;;;;;;6.82;80.70;99143.74;102757;1312;25845;-62
2022/01/04 02:00:32;;;;;;;4.40;0.60;;;;;;;6.81;80.57;99134.85;102772;1312;25370;-62
2022/01/04 02:03:04;;;;;;;3.30;0.60;;;;;;;6.78;80.55;99136.41;102789;1309;25370;-62
2022/01/04 02:05:35;;;;;;;3.80;0.60;;;;;;;6.76;80.61;99133.83;102630;1312;22631;-62
2022/01/04 02:08:07;;;;;;;3.70;0.40;;;;;;;6.75;80.52;99126.08;102668;1313;22590;-62
2022/01/04 02:10:39;;;;;;;1.70;0.30;;;;;;;6.72;80.56;99118.31;102726;1312;24184;-62
2022/01/04 02:13:10;;;;;;;1.80;0.30;;;;;;;6.68;80.35;99116.80;102800;1301;22578;-62
2022/01/04 02:15:41;;;;;;;4.30;0.50;;;;;;;6.67;80.35;99112.17;102689;1310;23202;-63
2022/01/04 02:18:11;;;;;;;3.60;0.50;;;;;;;6.66;80.50;99104.00;102672;1312;26564;-62
2022/01/04 02:20:43;;;;;;;2.40;0.40;;;;;;;6.62;80.34;99105.44;102661;1312;22610;-63
2022/01/04 02:23:15;;;;;;;1.80;0.30;;;;;;;6.60;80.38;99109.20;102785;1312;25914;-62
2022/01/04 02:25:47;;;;;;;5.50;0.30;;;;;;;6.59;80.41;99105.14;102631;1313;22581;-62
2022/01/04 02:28:20;;;;;;;1.00;0.20;;;;;;;6.59;80.43;99094.61;102608;1312;24330;-61
2022/01/04 02:30:52;;;;;;;2.50;0.40;;;;;;;6.58;80.48;99089.90;102653;1310;22567;-62
2022/01/04 02:33:23;;;;;;;1.60;0.20;;;;;;;6.56;80.48;99084.63;102728;1311;25513;-62
2022/01/04 02:35:53;;;;;;;1.70;0.30;;;;;;;6.55;80.49;99085.58;102564;1306;22612;-62
2022/01/04 02:38:25;;;;;;;3.60;0.30;;;;;;;6.52;80.41;99081.10;102728;1310;24292;-61
2022/01/04 02:40:58;;;;;;;2.00;0.40;;;;;;;6.51;80.52;99080.77;102678;1311;22737;-62
2022/01/04 02:43:28;;;;;;;2.50;0.30;;;;;;;6.51;80.58;99081.23;102821;1309;25377;-62
2022/01/04 02:45:59;;;;;;;2.40;0.30;;;;;;;6.52;80.68;99071.05;102597;1312;22518;-61
2022/01/04 02:48:30;;;;;;;1.70;0.40;;;;;;;6.51;80.79;99064.90;102721;1312;25226;-62
2022/01/04 02:51:01;;;;;;;2.20;0.40;;;;;;;6.52;81.00;99062.38;102685;1309;22581;-62
2022/01/04 02:53:35;;;;;;;1.70;0.20;;;;;;;6.49;80.98;99057.60;102772;1312;23055;-62
2022/01/04 02:56:06;;;;;;;3.10;0.40;;;;;;;6.48;81.16;99055.66;102634;1313;22587;-62
2022/01/04 02:58:38;;;;;;;1.50;0.30;;;;;;;6.49;81.17;99054.98;102652;1313;22563;-62
2022/01/04 03:01:09;;;;;;;1.90;0.30;;;;;;;6.50;81.24;99051.91;102696;1312;22570;-61
2022/01/04 03:03:40;;;;;;;2.30;0.40;;;;;;;6.52;81.29;99047.83;102736;1312;25415;-63
2022/01/04 03:06:17;;;;;;;2.70;0.60;;;;;;;6.54;81.38;99044.66;102661;1312;25247;-61
2022/01/04 03:08:47;;;;;;;2.70;0.30;;;;;;;6.54;81.32;99041.84;102697;1312;22832;-62
2022/01/04 03:11:19;;;;;;;2.50;0.30;;;;;;;6.55;81.36;99034.86;102637;1312;23838;-62
2022/01/04 03:13:50;;;;;;;2.00;0.40;;;;;;;6.55;81.38;99035.25;102786;1313;22659;-61
2022/01/04 03:16:20;;;;;;;4.00;0.40;;;;;;;6.55;81.32;99025.98;102688;1313;25222;-62
2022/01/04 03:19:03;;;;;;;2.10;0.30;;;;;;;6.55;81.36;99017.01;102774;1312;22701;-62
2022/01/04 03:21:34;;;;;;;3.30;0.50;;;;;;;6.57;81.37;99014.55;102742;1312;23825;-62
2022/01/04 03:24:08;;;;;;;3.00;0.50;;;;;;;6.57;81.39;99010.02;102820;1312;26146;-60
2022/01/04 03:26:40;;;;;;;4.00;0.70;;;;;;;6.58;81.42;99010.45;102726;1312;22570;-61
2022/01/04 03:29:13;;;;;;;3.30;0.50;;;;;;;6.60;81.42;99008.20;102625;1313;22585;-62
2022/01/04 03:31:45;;;;;;;2.80;0.40;;;;;;;6.62;81.33;99010.85;102701;1313;24216;-62
2022/01/04 03:34:16;;;;;;;2.00;0.40;;;;;;;6.64;81.34;99008.88;102668;1311;22619;-61
2022/01/04 03:36:47;;;;;;;3.50;0.30;;;;;;;6.65;81.35;99003.55;102728;1311;25843;-61
2022/01/04 03:39:18;;;;;;;1.50;0.30;;;;;;;6.67;81.32;98998.69;102709;1302;24259;-62
2022/01/04 03:41:51;;;;;;;2.20;0.20;;;;;;;6.69;81.21;98996.65;102815;1311;24323;-63
2022/01/04 03:44:22;;;;;;;3.70;0.30;;;;;;;6.71;81.24;98992.10;102680;1308;22995;-62
2022/01/04 03:46:55;;;;;;;2.20;0.30;;;;;;;6.72;81.17;98989.38;102668;1313;22725;-62
2022/01/04 03:49:26;;;;;;;3.10;0.40;;;;;;;6.72;81.18;98987.10;103433;1312;25232;-62
2022/01/04 03:51:57;;;;;;;2.90;0.40;;;;;;;6.72;81.11;98979.38;102871;1307;22590;-61
2022/01/04 03:54:28;;;;;;;1.90;0.40;;;;;;;6.71;81.21;98977.06;102695;1311;22570;-62
2022/01/04 03:57:00;;;;;;;3.60;0.40;;;;;;;6.72;81.17;98971.78;102618;1312;25660;-61
2022/01/04 03:59:31;;;;;;;2.80;0.30;;;;;;;6.74;81.08;98968.52;102667;1311;24686;-61
2022/01/04 04:02:01;;;;;;;3.30;0.30;;;;;;;6.75;81.21;98960.83;102633;1305;25844;-61
2022/01/04 04:04:32;;;;;;;2.80;0.30;;;;;;;6.75;81.12;98957.34;102648;1312;24130;-61
2022/01/04 04:07:03;;;;;;;2.20;0.30;;;;;;;6.73;81.02;98954.20;102691;1313;24206;-61
2022/01/04 04:09:36;;;;;;;2.10;0.40;;;;;;;6.71;81.08;98948.27;102643;1312;22612;-61
2022/01/04 04:12:09;;;;;;;2.70;0.30;;;;;;;6.70;81.07;98941.24;102647;1309;22618;-61
2022/01/04 04:14:40;;;;;;;2.50;0.40;;;;;;;6.66;80.97;98939.77;102733;1310;25422;-62
2022/01/04 04:17:11;;;;;;;2.30;0.50;;;;;;;6.63;80.99;98941.55;102625;1313;25251;-61
2022/01/04 04:19:41;;;;;;;3.90;0.50;;;;;;;6.60;81.08;98942.77;102630;1313;22631;-62
2022/01/04 04:22:12;;;;;;;3.50;0.40;;;;;;;6.57;81.10;98935.31;102632;1312;25479;-62
2022/01/04 04:24:44;;;;;;;1.50;0.30;;;;;;;6.57;81.23;98936.21;102720;1312;26618;-60
2022/01/04 04:27:15;;;;;;;5.20;0.70;;;;;;;6.56;81.27;98930.16;102668;1312;25371;-61
2022/01/04 04:29:46;;;;;;;3.50;0.60;;;;;;;6.56;81.29;98926.98;102748;1311;24205;-61
2022/01/04 04:32:17;;;;;;;2.60;0.50;;;;;;;6.55;81.25;98929.25;102632;1312;25879;-60
2022/01/04 04:34:48;;;;;;;4.70;0.60;;;;;;;6.54;81.26;98926.60;102708;1313;24222;-61
2022/01/04 04:37:18;;;;;;;3.30;0.40;;;;;;;6.53;81.38;98919.59;102633;1312;24502;-62
2022/01/04 04:39:49;;;;;;;3.20;0.50;;;;;;;6.54;81.32;98915.61;102666;1312;22625;-62
2022/01/04 04:42:21;;;;;;;3.60;0.50;;;;;;;6.53;81.30;98913.75;102528;1313;25600;-61
2022/01/04 04:44:52;;;;;;;3.00;0.50;;;;;;;6.54;81.37;98908.95;102600;1312;22588;-60
2022/01/04 04:47:25;;;;;;;3.30;0.60;;;;;;;6.55;81.50;98906.86;102503;1314;24342;-61
2022/01/04 04:49:57;;;;;;;2.10;0.50;;;;;;;6.56;81.55;98904.60;102779;1313;22644;-61
2022/01/04 04:52:28;;;;;;;4.00;0.60;;;;;;;6.56;81.62;98905.24;102631;1312;25482;-62
2022/01/04 04:54:59;;;;;;;4.70;0.80;;;;;;;6.57;81.68;98905.77;102641;1311;24364;-62
2022/01/04 04:57:30;;;;;;;5.70;1.20;;;;;;;6.57;82.01;98907.38;102708;1312;22621;-62
2022/01/04 05:00:00;;;;;;;10.00;1.30;;;;;;;6.58;82.16;98902.11;102745;1311;22685;-62
2022/01/04 05:02:31;;;;;;;7.30;1.30;;;;;;;6.57;82.27;98904.42;102620;1311;25275;-62
2022/01/04 05:05:02;;;;;;;10.30;1.40;;;;;;;6.58;82.36;98904.57;102715;1313;22574;-60
2022/01/04 05:07:35;;;;;;;8.30;1.50;;;;;;;6.57;82.39;98900.54;102616;1312;22614;-61
2022/01/04 05:10:09;;;;;;;8.70;1.50;;;;;;;6.57;82.55;98895.54;102672;1311;23041;-62
2022/01/04 05:12:41;;;;;;;7.60;1.60;;;;;;;6.57;82.60;98890.80;102826;1312;22578;-62
2022/01/04 05:15:15;;;;;;;8.10;1.50;;;;;;;6.57;82.72;98886.45;102841;1312;25200;-62
2022/01/04 05:17:47;;;;;;;7.80;1.10;;;;;;;6.57;82.75;98884.20;102863;1311;24211;-61
2022/01/04 05:20:18;;;;;;;4.30;1.00;;;;;;;6.59;82.91;98885.53;102640;1312;22650;-62
2022/01/04 05:22:49;;;;;;;5.60;1.40;;;;;;;6.59;82.81;98883.26;102613;1313;22741;-61
2022/01/04 05:25:24;;;;;;;8.40;1.40;;;;;;;6.59;82.94;98878.16;102526;1309;23918;-63
2022/01/04 05:27:55;;;;;;;6.00;1.70;;;;;;;6.61;82.96;98874.56;102665;1312;22667;-61
2022/01/04 05:30:26;;;;;;;5.80;1.30;;;;;;;6.60;82.97;98870.02;102605;1312;23421;-62
2022/01/04 05:33:04;;;;;;;4.50;1.20;;;;;;;6.58;82.94;98866.30;102595;1312;25637;-61
2022/01/04 05:35:35;;;;;;;7.80;1.40;;;;;;;6.59;83.00;98868.34;102652;1312;22603;-62
2022/01/04 05:38:06;;;;;;;6.60;1.40;;;;;;;6.62;83.22;98864.09;102536;1312;22528;-62
2022/01/04 05:40:38;;;;;;;5.60;1.30;;;;;;;6.63;83.22;98864.71;102619;1311;22620;-62
2022/01/04 05:43:11;;;;;;;5.60;1.30;;;;;;;6.62;83.14;98861.06;102561;1303;22576;-62
2022/01/04 05:45:45;;;;;;;8.40;1.60;;;;;;;6.60;83.28;98851.31;102650;1313;22581;-61
2022/01/04 05:48:20;;;;;;;7.10;1.60;;;;;;;6.60;83.26;98846.07;102634;1311;22574;-62
2022/01/04 05:50:51;;;;;;;7.70;1.80;;;;;;;6.61;83.42;98841.39;102665;1312;25498;-62
2022/01/04 05:53:22;;;;;;;11.00;1.90;;;;;;;6.62;83.41;98834.80;102599;1312;22614;-61
2022/01/04 05:55:53;;;;;;;11.60;2.20;;;;;;;6.64;83.35;98829.48;102659;1312;24151;-62
2022/01/04 05:58:24;;;;;;;9.80;2.30;;;;;;;6.64;83.42;98823.30;102661;1312;23213;-62
2022/01/04 06:00:55;;;;;;;10.00;2.50;;;;;;;6.63;83.43;98816.16;102735;1309;23098;-62
2022/01/04 06:03:29;;;;;;;11.50;2.00;;;;;;;6.63;83.40;98815.89;102752;1311;22593;-61
2022/01/04 06:06:00;;;;;;;8.30;1.80;;;;;;;6.64;83.42;98808.72;102738;1312;22628;-63
2022/01/04 06:08:35;;;;;;;8.70;2.00;;;;;;;6.63;83.46;98815.59;102652;1310;25380;-64
2022/01/04 06:11:08;;;;;;;8.90;2.30;;;;;;;6.63;83.58;98812.27;102558;1312;25330;-64
2022/01/04 06:16:27;;;;;;;9.30;2.40;;;;;;;6.64;83.58;98800.70;102606;1312;24213;-66
2022/01/04 06:18:57;;;;;;;13.20;2.20;;;;;;;6.65;83.56;98807.46;102508;1312;25280;-64
2022/01/04 06:21:28;;;;;;;9.40;2.20;;;;;;;6.67;83.53;98800.98;102492;1311;22736;-64
2022/01/04 06:23:59;;;;;;;10.40;2.40;;;;;;;6.70;83.60;98788.52;102590;1312;26481;-65
2022/01/04 06:26:30;;;;;;;7.80;1.80;;;;;;;6.73;83.68;98784.61;102712;1311;26479;-65
2022/01/04 06:29:01;;;;;;;11.30;2.50;;;;;;;6.75;83.65;98784.07;103007;1313;22669;-64
2022/01/04 06:31:32;;;;;;;12.50;3.20;;;;;;;6.75;83.62;98788.66;103112;1311;23809;-63
2022/01/04 06:34:04;;;;;;;14.70;3.60;;;;;;;6.75;83.62;98785.64;102759;1312;22568;-66
2022/01/04 06:36:35;;;;;;;13.30;3.70;;;;;;;6.74;83.73;98778.92;102490;1314;22628;-63
2022/01/04 06:39:07;;;;;;;17.80;5.60;;;;;;;6.74;83.65;98780.13;102621;1312;22606;-64
2022/01/04 06:41:37;;;;;;;25.50;8.50;;;;;;;6.74;83.83;98776.86;102577;1312;22619;-63
2022/01/04 06:44:08;;;;;;;20.20;6.70;;;;;;;6.76;83.88;98774.30;102699;1312;22588;-63
2022/01/04 06:46:45;;;;;;;19.10;5.70;;;;;;;6.76;83.91;98771.23;102852;1312;24259;-63
2022/01/04 06:49:18;;;;;;;16.40;4.70;;;;;;;6.77;83.96;98770.94;102633;1311;22576;-63
2022/01/04 06:51:50;;;;;;;25.30;5.10;;;;;;;6.78;83.97;98767.67;103547;1311;22590;-64
2022/01/04 06:54:22;;;;;;;11.10;4.20;;;;;;;6.78;83.92;98761.97;103563;1312;24260;-64
2022/01/04 06:56:53;;;;;;;13.10;3.70;;;;;;;6.82;84.01;98759.59;102728;1309;22571;-63
2022/01/04 06:59:30;;;;;;;11.00;3.10;;;;;;;6.83;83.93;98759.66;102696;1312;22636;-63
2022/01/04 07:02:02;;;;;;;9.40;2.30;;;;;;;6.84;84.02;98759.87;102758;1312;22613;-63
2022/01/04 07:04:40;;;;;;;10.10;2.70;;;;;;;6.84;84.05;98753.81;102595;1314;22638;-63
2022/01/04 07:07:11;;;;;;;8.30;2.40;;;;;;;6.85;84.05;98747.05;102802;1312;25382;-63
2022/01/04 07:09:45;;;;;;;9.40;2.00;;;;;;;6.86;84.15;98745.15;102790;1312;22602;-63
2022/01/04 07:12:16;;;;;;;11.00;2.60;;;;;;;6.87;84.18;98745.52;102788;1312;25225;-63
2022/01/04 07:14:49;;;;;;;11.50;2.80;;;;;;;6.89;84.26;98743.02;102754;1312;22586;-64
2022/01/04 07:17:22;;;;;;;11.60;3.00;;;;;;;6.91;84.39;98740.01;102596;1312;22578;-63
2022/01/04 07:19:55;;;;;;;11.20;2.60;;;;;;;6.91;84.33;98736.93;102750;1314;22586;-63
2022/01/04 07:22:26;;;;;;;11.20;3.20;;;;;;;6.93;84.43;98738.15;102702;1312;22624;-63
2022/01/04 07:25:01;;;;;;;11.50;3.00;;;;;;;6.95;84.54;98732.88;102850;1312;22583;-63
2022/01/04 07:27:47;;;;;;;10.20;3.10;;;;;;;6.95;84.47;98728.79;102783;1312;22624;-63
2022/01/04 07:30:19;;;;;;;11.60;3.00;;;;;;;6.96;84.56;98721.73;102678;1312;24223;-63
2022/01/04 07:32:53;;;;;;;9.50;3.40;;;;;;;6.95;84.66;98713.37;102725;1312;23903;-63
2022/01/04 07:35:27;;;;;;;11.90;2.90;;;;;;;6.94;84.82;98711.59;102867;1312;23296;-63
2022/01/04 07:38:02;;;;;;;9.40;2.80;;;;;;;6.94;84.93;98716.02;102897;1313;24081;-64
2022/01/04 07:40:35;;;;;;;11.20;3.70;;;;;;;6.96;85.07;98710.27;102717;1311;22640;-64
2022/01/04 07:43:07;;;;;;;17.00;3.10;;;;;;;6.97;85.18;98697.44;102872;1313;25376;-63
2022/01/04 07:45:38;;;;;;;12.30;2.70;;;;;;;6.99;85.22;98695.08;102611;1312;25365;-64
2022/01/04 07:48:11;;;;;;;11.50;3.70;;;;;;;6.99;85.28;98687.07;102627;1312;22971;-64
2022/01/04 07:50:43;;;;;;;13.90;4.30;;;;;;;6.99;85.27;98675.96;102561;1312;22966;-64
2022/01/04 07:53:14;;;;;;;19.40;6.60;;;;;;;6.98;85.50;98665.56;102558;1313;24793;-64
2022/01/04 07:55:50;;;;;;;20.30;6.70;;;;;;;6.98;85.53;98654.06;102703;1313;22671;-64
2022/01/04 07:58:25;;;;;;;15.50;4.60;;;;;;;6.99;85.71;98651.21;102696;1312;22594;-64
2022/01/04 08:01:07;;;;;;;11.60;3.20;;;;;;;7.00;85.84;98651.11;102622;1312;23674;-64
2022/01/04 08:03:42;;;;;;;11.70;4.00;;;;;;;7.01;85.94;98643.46;102749;1306;25330;-63
2022/01/04 08:06:15;;;;;;;14.20;3.90;;;;;;;7.01;85.86;98634.17;102749;1312;22684;-63
2022/01/04 08:08:47;;;;;;;13.60;3.20;;;;;;;7.02;85.98;98624.55;102797;1309;27640;-63
2022/01/04 08:11:20;;;;;;;13.70;3.90;;;;;;;7.03;86.14;98618.60;102601;1312;24129;-64
2022/01/04 08:13:51;;;;;;;11.70;3.60;;;;;;;7.03;86.17;98614.56;102731;1312;25820;-63
2022/01/04 08:16:22;;;;;;;13.50;4.10;;;;;;;7.06;86.20;98610.73;102597;1312;24059;-63
2022/01/04 08:18:53;;;;;;;14.40;3.90;;;;;;;7.06;86.29;98602.36;102706;1313;25233;-63
2022/01/04 08:21:24;;;;;;;12.90;4.60;;;;;;;7.08;86.30;98599.80;102634;1312;22650;-63
2022/01/04 08:23:56;;;;;;;15.10;5.80;;;;;;;7.08;86.37;98594.15;102731;1311;24182;-63
2022/01/04 08:26:36;;;;;;;16.80;7.10;;;;;;;7.10;86.42;98585.64;102747;1312;22641;-63
2022/01/04 08:29:31;;;;;;;15.80;7.50;;;;;;;7.12;86.46;98578.44;102237;1312;25508;-63
2022/01/04 08:32:03;;;;;;;17.40;6.70;;;;;;;7.12;86.57;98576.92;102600;1313;22650;-63
2022/01/04 08:34:34;;;;;;;18.20;6.10;;;;;;;7.13;86.63;98573.96;102695;1311;22600;-63
2022/01/04 08:37:05;;;;;;;19.60;7.20;;;;;;;7.15;86.65;98569.23;102765;1311;25975;-63
2022/01/04 08:39:36;;;;;;;21.80;7.30;;;;;;;7.17;86.81;98564.70;102703;1309;25398;-63
2022/01/04 08:42:10;;;;;;;17.60;6.20;;;;;;;7.19;86.95;98562.79;102825;1309;22678;-62
2022/01/04 08:44:41;;;;;;;18.10;5.20;;;;;;;7.20;86.97;98557.77;102821;1312;25295;-63
2022/01/04 08:47:16;;;;;;;17.80;6.20;;;;;;;7.23;87.14;98552.05;102558;1314;22573;-63
2022/01/04 08:49:59;;;;;;;15.40;6.40;;;;;;;7.27;87.12;98552.64;102739;1313;22519;-65
2022/01/04 08:52:30;;;;;;;19.50;7.30;;;;;;;7.29;87.17;98556.08;102901;1312;22580;-62
2022/01/04 08:55:02;;;;;;;16.60;5.90;;;;;;;7.29;87.19;98554.05;102693;1311;24177;-63
2022/01/04 08:57:37;;;;;;;20.30;7.60;;;;;;;7.29;87.30;98556.48;102667;1312;22644;-63
2022/01/04 09:00:12;;;;;;;18.20;7.90;;;;;;;7.32;87.30;98556.04;102651;1309;25455;-62
2022/01/04 09:02:44;;;;;;;15.80;7.10;;;;;;;7.36;87.52;98553.29;102875;1309;22577;-63
2022/01/04 09:05:15;;;;;;;15.40;6.50;;;;;;;7.38;87.32;98547.99;102764;1312;22571;-63
2022/01/04 09:07:48;;;;;;;14.70;5.60;;;;;;;7.40;87.45;98547.50;103078;1309;22577;-64
2022/01/04 09:10:26;;;;;;;14.70;5.90;;;;;;;7.42;87.40;98539.89;103158;1312;24274;-64
2022/01/04 09:13:01;;;;;;;13.20;5.50;;;;;;;7.46;87.57;98536.27;102825;1310;22619;-64
2022/01/04 09:15:55;;;;;;;15.20;6.10;;;;;;;7.47;87.69;98532.34;102628;1312;22623;-63
2022/01/04 09:21:24;;;;;;;15.70;5.90;;;;;;;7.52;87.85;98527.97;102574;1312;25942;-63
2022/01/04 09:24:00;;;;;;;16.70;4.50;;;;;;;7.57;87.91;98522.18;102660;1312;24332;-63
2022/01/04 09:26:35;;;;;;;18.60;4.40;;;;;;;7.61;87.97;98523.65;102624;1312;23039;-63
2022/01/04 09:29:09;;;;;;;19.30;5.10;;;;;;;7.63;88.00;98520.52;102637;1313;25664;-63
2022/01/04 09:32:00;;;;;;;15.30;3.40;;;;;;;7.66;87.96;98517.40;102621;1312;22601;-63
2022/01/04 09:34:34;;;;;;;11.60;3.40;;;;;;;7.69;88.25;98508.12;102420;1314;22699;-64
2022/01/04 09:37:05;;;;;;;16.80;4.50;;;;;;;7.71;88.11;98501.70;102497;1312;25525;-64
2022/01/04 09:39:37;;;;;;;14.80;5.20;;;;;;;7.75;88.30;98495.91;102599;1312;23083;-64
2022/01/04 09:42:08;;;;;;;16.70;5.50;;;;;;;7.78;88.07;98487.23;102656;1311;22596;-64
2022/01/04 09:44:39;;;;;;;20.30;6.30;;;;;;;7.80;88.08;98484.06;102732;1312;25254;-64
2022/01/04 09:47:12;;;;;;;16.70;5.00;;;;;;;7.81;88.16;98483.05;102587;1312;22597;-63
2022/01/04 09:49:44;;;;;;;22.10;4.90;;;;;;;7.81;88.15;98473.45;102563;1312;24227;-64
2022/01/04 09:52:21;;;;;;;18.70;7.20;;;;;;;7.81;88.15;98467.85;102730;1312;25595;-63
2022/01/04 09:55:06;;;;;;;21.00;6.80;;;;;;;7.81;87.98;98461.18;102653;1311;22578;-64
2022/01/04 09:57:40;;;;;;;20.70;6.60;;;;;;;7.81;88.08;98453.04;102714;1312;24292;-64
2022/01/04 10:00:19;;;;;;;17.00;6.30;;;;;;;7.82;88.09;98445.41;102489;1312;25407;-64
2022/01/04 10:02:52;;;;;;;18.70;6.00;;;;;;;7.85;88.23;98442.29;102513;1314;25017;-63
2022/01/04 10:05:29;;;;;;;17.70;5.50;;;;;;;7.86;88.25;98432.73;102527;1313;22571;-63
2022/01/04 10:08:09;;;;;;;16.60;5.90;;;;;;;7.87;88.33;98421.73;102793;1313;24219;-67
2022/01/04 10:10:48;;;;;;;18.40;5.50;;;;;;;7.89;88.34;98414.20;102561;1313;22531;-65
2022/01/04 10:13:30;;;;;;;15.60;5.00;;;;;;;7.91;88.47;98411.27;102504;1306;22688;-64
2022/01/04 10:16:14;;;;;;;15.30;5.00;;;;;;;7.93;88.37;98405.17;102713;1312;22564;-64
2022/01/04 10:19:02;;;;;;;15.50;4.50;;;;;;;7.95;88.39;98405.23;102683;1312;22683;-64
2022/01/04 10:21:35;;;;;;;14.40;4.10;;;;;;;7.97;88.35;98407.73;102576;1312;22612;-63
2022/01/04 10:24:12;;;;;;;15.20;4.90;;;;;;;8.00;88.42;98401.13;102648;1312;25209;-63
2022/01/04 10:26:52;;;;;;;15.60;4.30;;;;;;;8.02;88.53;98399.55;102556;1312;22634;-63
2022/01/04 10:29:23;;;;;;;14.90;5.20;;;;;;;8.03;88.46;98398.80;102494;1314;24253;-63
2022/01/04 10:31:57;;;;;;;18.50;4.70;;;;;;;8.04;88.46;98392.38;102633;1312;26072;-64
2022/01/04 10:34:51;;;;;;;17.40;4.40;;;;;;;8.04;88.23;98386.83;102812;1311;26516;-64
2022/01/04 10:37:46;;;;;;;18.60;5.70;;;;;;;8.03;88.34;98382.64;102718;1312;22590;-64
2022/01/04 10:40:20;;;;;;;14.50;3.90;;;;;;;8.02;88.37;98376.07;102561;1312;22580;-63
2022/01/04 10:42:55;;;;;;;16.70;4.50;;;;;;;8.01;88.31;98370.70;102721;1311;25648;-63
2022/01/04 10:45:35;;;;;;;14.00;4.50;;;;;;;8.00;88.28;98365.77;102545;1313;25430;-64
2022/01/04 10:48:25;;;;;;;11.90;4.50;;;;;;;8.00;88.33;98357.67;102647;1313;22546;-63
2022/01/04 10:50:58;;;;;;;13.20;4.60;;;;;;;8.00;88.49;98344.79;102362;1308;24203;-64
2022/01/04 10:54:06;;;;;;;16.80;5.30;;;;;;;8.03;88.58;98344.08;102313;1312;22575;-64
2022/01/04 10:56:40;;;;;;;14.30;4.20;;;;;;;8.04;88.60;98337.26;102331;1312;25446;-63
2022/01/04 10:59:15;;;;;;;19.50;6.10;;;;;;;8.07;88.74;98331.30;102513;1312;24429;-63
2022/01/04 11:01:51;;;;;;;20.80;7.40;;;;;;;8.10;88.84;98326.84;102372;1312;22558;-63
2022/01/04 11:04:23;;;;;;;24.40;10.50;;;;;;;8.13;88.97;98319.97;102586;1313;22590;-64
2022/01/04 11:07:02;;;;;;;29.40;10.80;;;;;;;8.15;88.96;98315.15;102318;1312;22564;-64
2022/01/04 11:09:34;;;;;;;26.90;9.60;;;;;;;8.17;88.81;98309.80;102510;1312;22578;-63
2022/01/04 11:12:06;;;;;;;22.50;9.50;;;;;;;8.18;88.81;98306.20;102380;1312;22606;-63
2022/01/04 11:14:38;;;;;;;20.90;8.20;;;;;;;8.19;88.87;98297.25;102374;1313;22574;-64
2022/01/04 11:17:12;;;;;;;15.90;5.90;;;;;;;8.22;88.76;98287.89;102387;1309;24453;-63
2022/01/04 11:19:45;;;;;;;14.30;4.70;;;;;;;8.22;88.73;98280.92;102463;1313;22580;-63
2022/01/04 11:22:17;;;;;;;18.30;4.90;;;;;;;8.22;88.60;98271.27;102410;1305;25373;-64
2022/01/04 11:24:49;;;;;;;17.60;6.00;;;;;;;8.19;88.48;98267.79;102425;1312;25329;-64
2022/01/04 11:27:30;;;;;;;18.60;5.80;;;;;;;8.19;88.84;98270.16;102322;1312;25458;-64
2022/01/04 11:30:13;;;;;;;15.20;4.70;;;;;;;8.21;88.77;98263.80;102527;1312;25335;-64
2022/01/04 11:32:53;;;;;;;14.60;4.80;;;;;;;8.20;88.84;98255.51;102397;1313;25313;-63
2022/01/04 11:35:26;;;;;;;12.80;4.00;;;;;;;8.21;88.83;98248.08;102347;1313;23393;-63
2022/01/04 11:38:03;;;;;;;14.30;4.20;;;;;;;8.21;88.93;98247.98;102552;1313;22577;-63
2022/01/04 11:40:36;;;;;;;18.10;4.60;;;;;;;8.24;88.90;98241.19;102475;1311;25324;-63
2022/01/04 11:43:49;;;;;;;16.10;4.70;;;;;;;8.24;88.73;98231.54;102516;1309;22623;-64
2022/01/04 11:46:58;;;;;;;17.90;6.40;;;;;;;8.26;88.93;98226.20;102413;1312;26434;-63
2022/01/04 11:49:40;;;;;;;16.70;5.20;;;;;;;8.29;89.16;98216.79;101616;1317;22592;-63
2022/01/04 11:52:41;;;;;;;16.30;4.70;;;;;;;8.32;89.20;98202.77;101627;1316;22570;-63
2022/01/04 11:55:22;;;;;;;20.10;6.80;;;;;;;8.36;89.16;98192.13;101696;1318;22637;-64
2022/01/04 11:57:59;;;;;;;27.50;11.70;;;;;;;8.37;89.14;98185.11;101605;1317;22575;-63
2022/01/04 12:00:32;;;;;;;30.00;11.70;;;;;;;8.40;89.39;98181.05;101645;1317;22583;-63
2022/01/04 12:03:10;;;;;;;27.50;10.90;;;;;;;8.43;89.25;98175.98;101602;1317;22570;-64
2022/01/04 12:05:58;;;;;;;31.40;13.90;;;;;;;8.44;89.10;98168.94;101781;1317;22762;-63